Time;durP1;ratioP1;P1;durP2;ratioP2;P2;SDS_P1;SDS_P2;PMS_P1;PMS_P2;Temp;Humidity;BMP_temperature;BMP_pressure;BME280_temperature;BME280_humidity;BME280_pressure;Samples;Min_cycle;Max_cycle;Signal;HPM_P1;HPM_P2
2022/01/26 00:06:48;;;;;;;16.40;11.03;;;;;;;;;;4941713;28;20213;-63
2022/01/26 00:09:15;;;;;;;18.37;11.53;;;;;;;;;;4943370;28;20572;-63
2022/01/26 00:11:43;;;;;;;18.83;10.23;;;;;;;;;;4944911;28;21067;-63
2022/01/26 00:14:13;;;;;;;17.07;10.80;;;;;;;;;;4942488;28;20269;-64
2022/01/26 00:16:44;;;;;;;16.43;10.77;;;;;;;;;;4934200;28;20213;-62
2022/01/26 00:19:18;;;;;;;17.87;10.70;;;;;;;;;;4944065;28;20217;-63
2022/01/26 00:29:28;;;;;;;20.60;13.90;;;;;;;;;;4951118;28;20212;-63
2022/01/26 00:40:12;;;;;;;20.37;11.33;;;;;;;;;;4952997;28;20634;-61
2022/01/26 00:42:41;;;;;;;17.63;10.43;;;;;;;;;;4937197;28;20219;-61
2022/01/26 00:45:09;;;;;;;16.70;10.63;;;;;;;;;;4935821;28;20243;-63
2022/01/26 00:47:37;;;;;;;16.77;10.67;;;;;;;;;;4947258;28;20207;-64
2022/01/26 00:50:09;;;;;;;18.00;11.17;;;;;;;;;;4953637;28;20249;-63
2022/01/26 00:52:42;;;;;;;18.43;10.30;;;;;;;;;;4949422;28;20224;-62
2022/01/26 00:55:11;;;;;;;15.20;10.57;;;;;;;;;;4952489;28;20295;-65
2022/01/26 00:57:39;;;;;;;16.70;10.30;;;;;;;;;;4948814;28;20289;-64
2022/01/26 01:00:09;;;;;;;15.50;10.20;;;;;;;;;;4946106;28;20733;-64
2022/01/26 01:02:37;;;;;;;16.07;9.70;;;;;;;;;;4956112;28;20690;-63
2022/01/26 01:05:13;;;;;;;14.57;9.53;;;;;;;;;;4954493;28;20239;-63
2022/01/26 01:07:42;;;;;;;16.90;10.20;;;;;;;;;;4942959;28;20230;-62
2022/01/26 01:10:09;;;;;;;15.20;9.20;;;;;;;;;;4947231;28;20224;-64
2022/01/26 01:12:42;;;;;;;13.87;8.43;;;;;;;;;;4950177;28;20201;-61
2022/01/26 01:15:10;;;;;;;12.50;8.23;;;;;;;;;;4951624;28;20221;-64
2022/01/26 01:17:43;;;;;;;13.13;7.77;;;;;;;;;;4944308;28;20678;-62
2022/01/26 01:22:51;;;;;;;12.50;8.30;;;;;;;;;;4958650;28;20221;-63
2022/01/26 01:28:09;;;;;;;12.00;8.33;;;;;;;;;;4951189;28;20213;-64
2022/01/26 01:30:41;;;;;;;17.13;9.37;;;;;;;;;;4949148;28;20261;-63
2022/01/26 01:33:10;;;;;;;16.00;9.03;;;;;;;;;;4953252;28;20667;-64
2022/01/26 01:35:40;;;;;;;17.63;9.13;;;;;;;;;;4948748;28;21032;-64
2022/01/26 01:38:10;;;;;;;15.83;8.90;;;;;;;;;;4956763;28;20896;-63
2022/01/26 01:40:38;;;;;;;12.97;8.20;;;;;;;;;;4934213;28;20311;-64
2022/01/26 01:43:06;;;;;;;14.23;8.27;;;;;;;;;;4946765;28;20209;-65
2022/01/26 01:45:34;;;;;;;12.90;7.63;;;;;;;;;;4944112;28;20729;-64
2022/01/26 01:48:03;;;;;;;13.63;8.47;;;;;;;;;;4950140;28;20859;-64
2022/01/26 01:50:35;;;;;;;12.00;7.97;;;;;;;;;;4952449;28;20230;-63
2022/01/26 01:53:03;;;;;;;10.63;8.23;;;;;;;;;;4958903;28;20213;-64
2022/01/26 01:55:32;;;;;;;14.53;8.60;;;;;;;;;;4944628;28;20210;-64
2022/01/26 01:58:00;;;;;;;14.77;9.97;;;;;;;;;;4944439;28;20208;-63
2022/01/26 02:00:28;;;;;;;11.93;7.60;;;;;;;;;;4949734;28;20232;-64
2022/01/26 02:02:57;;;;;;;13.00;7.90;;;;;;;;;;4946719;28;20217;-63
2022/01/26 02:05:24;;;;;;;11.93;7.87;;;;;;;;;;4945583;28;20319;-65
2022/01/26 02:07:52;;;;;;;16.67;10.40;;;;;;;;;;4945429;28;20205;-64
2022/01/26 02:10:22;;;;;;;51.80;24.27;;;;;;;;;;4947590;28;20228;-64
2022/01/26 02:12:52;;;;;;;47.77;22.77;;;;;;;;;;4950586;28;20209;-63
2022/01/26 02:15:25;;;;;;;25.47;13.03;;;;;;;;;;4943619;28;20235;-64
2022/01/26 02:53:50;;;;;;;12.23;7.33;;;;;;;;;;4953455;28;20608;-63
2022/01/26 03:04:14;;;;;;;10.70;7.00;;;;;;;;;;4948174;28;20831;-64
2022/01/26 03:06:53;;;;;;;10.97;6.60;;;;;;;;;;4944100;28;20234;-63
2022/01/26 03:09:22;;;;;;;11.27;6.53;;;;;;;;;;4945709;28;20210;-65
2022/01/26 03:11:50;;;;;;;14.20;7.27;;;;;;;;;;4944384;28;20242;-64
2022/01/26 03:19:55;;;;;;;10.40;6.93;;;;;;;;;;4930426;28;20937;-64
2022/01/26 03:30:47;;;;;;;9.50;6.73;;;;;;;;;;4945307;28;20217;-64
2022/01/26 03:36:02;;;;;;;10.63;6.90;;;;;;;;;;4946064;28;20200;-62
2022/01/26 03:38:41;;;;;;;14.03;7.60;;;;;;;;;;4943291;28;20229;-63
2022/01/26 03:43:40;;;;;;;13.33;7.67;;;;;;;;;;4949708;28;20290;-65
2022/01/26 03:46:07;;;;;;;12.77;7.20;;;;;;;;;;4940912;28;20227;-61
2022/01/26 03:48:35;;;;;;;12.37;7.10;;;;;;;;;;4945012;28;21032;-64
2022/01/26 03:51:02;;;;;;;12.93;8.63;;;;;;;;;;4954106;28;21512;-64
2022/01/26 03:53:30;;;;;;;16.27;7.70;;;;;;;;;;4945230;28;20214;-64
2022/01/26 03:55:57;;;;;;;12.17;7.67;;;;;;;;;;4948187;28;20209;-62
2022/01/26 03:58:24;;;;;;;12.00;6.77;;;;;;;;;;4944410;28;20210;-64
2022/01/26 04:00:52;;;;;;;11.27;7.00;;;;;;;;;;4944381;28;20237;-61
2022/01/26 04:03:19;;;;;;;10.07;6.87;;;;;;;;;;4945851;28;20314;-62
2022/01/26 04:05:47;;;;;;;11.27;7.37;;;;;;;;;;4948613;28;20226;-63
2022/01/26 04:08:24;;;;;;;12.03;7.23;;;;;;;;;;4937396;28;20245;-63
2022/01/26 04:13:19;;;;;;;17.10;10.77;;;;;;;;;;4952177;28;21663;-62
2022/01/26 04:15:46;;;;;;;17.33;10.70;;;;;;;;;;4953960;28;20222;-64
2022/01/26 04:18:19;;;;;;;57.73;28.60;;;;;;;;;;4953856;28;20213;-63
2022/01/26 04:20:50;;;;;;;13.10;7.70;;;;;;;;;;4947314;28;20779;-64
2022/01/26 04:23:30;;;;;;;12.60;7.13;;;;;;;;;;4949398;28;20235;-63
2022/01/26 04:25:57;;;;;;;13.73;6.93;;;;;;;;;;4949305;28;20289;-64
2022/01/26 04:28:35;;;;;;;13.23;7.33;;;;;;;;;;4944133;28;20303;-64
2022/01/26 04:31:03;;;;;;;13.40;7.80;;;;;;;;;;4944023;28;20230;-63
2022/01/26 04:33:33;;;;;;;13.47;7.23;;;;;;;;;;4954683;28;20579;-63
2022/01/26 04:36:03;;;;;;;14.60;7.40;;;;;;;;;;4946351;28;21790;-64
2022/01/26 04:38:40;;;;;;;11.80;7.13;;;;;;;;;;4950243;28;20223;-63
2022/01/26 04:41:25;;;;;;;10.77;6.43;;;;;;;;;;4949365;28;21067;-61
2022/01/26 04:43:58;;;;;;;13.63;7.70;;;;;;;;;;4953950;28;20215;-63
2022/01/26 04:46:26;;;;;;;15.23;8.50;;;;;;;;;;4954498;28;20236;-63
2022/01/26 04:48:54;;;;;;;12.23;8.10;;;;;;;;;;4946226;28;20210;-64
2022/01/26 04:51:21;;;;;;;13.57;7.93;;;;;;;;;;4946748;28;20235;-61
2022/01/26 04:53:49;;;;;;;11.43;7.70;;;;;;;;;;4943528;28;20223;-62
2022/01/26 04:56:16;;;;;;;14.10;8.17;;;;;;;;;;4946088;28;20208;-63
2022/01/26 04:58:43;;;;;;;10.73;6.87;;;;;;;;;;4946838;28;20291;-63
2022/01/26 05:01:11;;;;;;;12.40;8.07;;;;;;;;;;4947803;28;20898;-64
2022/01/26 05:03:39;;;;;;;15.40;8.23;;;;;;;;;;4947335;28;20735;-63
2022/01/26 05:06:06;;;;;;;12.43;6.83;;;;;;;;;;4951180;28;20235;-64
2022/01/26 05:08:34;;;;;;;12.00;7.73;;;;;;;;;;4948333;28;20209;-64
2022/01/26 05:11:03;;;;;;;13.47;8.33;;;;;;;;;;4950404;28;20227;-64
2022/01/26 05:13:51;;;;;;;13.93;7.93;;;;;;;;;;4954553;28;20638;-64
2022/01/26 05:16:18;;;;;;;16.20;8.53;;;;;;;;;;4952121;28;20218;-63
2022/01/26 05:18:46;;;;;;;13.03;7.87;;;;;;;;;;4948568;28;20274;-63
2022/01/26 05:21:13;;;;;;;16.50;9.33;;;;;;;;;;4951986;28;20296;-64
2022/01/26 05:23:41;;;;;;;17.57;10.30;;;;;;;;;;4953139;28;20582;-62
2022/01/26 05:26:08;;;;;;;16.97;9.90;;;;;;;;;;4949199;28;20230;-62
2022/01/26 05:28:35;;;;;;;13.20;9.93;;;;;;;;;;4951034;28;20219;-63
2022/01/26 05:31:03;;;;;;;16.97;10.17;;;;;;;;;;4957964;28;20308;-64
2022/01/26 05:33:31;;;;;;;14.90;9.10;;;;;;;;;;4956193;28;20269;-62
2022/01/26 05:36:04;;;;;;;16.37;9.70;;;;;;;;;;4949327;28;20208;-64
2022/01/26 05:38:31;;;;;;;13.87;9.40;;;;;;;;;;4961347;28;20218;-62
2022/01/26 05:41:01;;;;;;;16.87;9.83;;;;;;;;;;4958857;28;20244;-64
2022/01/26 05:43:29;;;;;;;12.87;9.03;;;;;;;;;;4953760;28;20235;-62
2022/01/26 05:46:02;;;;;;;13.70;8.77;;;;;;;;;;4976057;28;20255;-63
2022/01/26 05:48:29;;;;;;;12.57;8.37;;;;;;;;;;4957542;28;20220;-62
2022/01/26 05:51:05;;;;;;;13.80;8.70;;;;;;;;;;4972665;28;20569;-62
2022/01/26 05:53:33;;;;;;;14.20;7.77;;;;;;;;;;4965513;28;20252;-62
2022/01/26 05:56:01;;;;;;;16.77;9.27;;;;;;;;;;4963323;28;20245;-62
2022/01/26 05:58:28;;;;;;;18.37;11.27;;;;;;;;;;4965248;28;20905;-64
2022/01/26 06:00:58;;;;;;;14.23;10.10;;;;;;;;;;4971219;28;20289;-62
2022/01/26 06:03:26;;;;;;;20.17;11.87;;;;;;;;;;4960660;28;20220;-63
2022/01/26 06:05:54;;;;;;;21.50;13.53;;;;;;;;;;4956330;28;20231;-63
2022/01/26 06:08:22;;;;;;;20.20;12.40;;;;;;;;;;4954689;28;20293;-62
2022/01/26 06:10:50;;;;;;;23.13;14.93;;;;;;;;;;4952941;28;20239;-63
2022/01/26 06:13:18;;;;;;;18.13;10.73;;;;;;;;;;4953085;28;20200;-63
2022/01/26 06:15:47;;;;;;;21.30;13.63;;;;;;;;;;4954302;28;20826;-63
2022/01/26 06:18:14;;;;;;;16.67;10.70;;;;;;;;;;4956974;28;20781;-64
2022/01/26 06:20:42;;;;;;;14.70;9.00;;;;;;;;;;4954276;28;20251;-63
2022/01/26 06:23:09;;;;;;;16.03;10.87;;;;;;;;;;4982474;28;20220;-62
2022/01/26 06:25:37;;;;;;;14.57;8.87;;;;;;;;;;4965328;28;20634;-63
2022/01/26 06:28:12;;;;;;;11.87;8.03;;;;;;;;;;4946061;28;20222;-65
2022/01/26 06:30:40;;;;;;;14.27;8.57;;;;;;;;;;4959015;28;20238;-62
2022/01/26 06:33:08;;;;;;;13.87;8.57;;;;;;;;;;4966176;28;20204;-63
2022/01/26 06:35:36;;;;;;;15.63;9.23;;;;;;;;;;4964420;28;20452;-62
2022/01/26 06:38:04;;;;;;;13.30;8.23;;;;;;;;;;4961196;28;20235;-63
2022/01/26 06:40:31;;;;;;;13.90;9.27;;;;;;;;;;4960525;28;20573;-62
2022/01/26 06:43:03;;;;;;;15.57;8.60;;;;;;;;;;4966276;28;21245;-62
2022/01/26 06:45:34;;;;;;;15.77;9.13;;;;;;;;;;4968169;28;20221;-63
2022/01/26 06:50:47;;;;;;;14.97;9.03;;;;;;;;;;4959561;28;20248;-63
2022/01/26 06:53:15;;;;;;;13.40;8.73;;;;;;;;;;4950774;28;20218;-65
2022/01/26 06:55:43;;;;;;;15.37;8.40;;;;;;;;;;4959230;28;20219;-63
2022/01/26 06:58:10;;;;;;;17.33;9.47;;;;;;;;;;4956919;28;20220;-63
2022/01/26 07:00:38;;;;;;;17.40;9.53;;;;;;;;;;4955182;28;20243;-64
2022/01/26 07:03:05;;;;;;;18.13;10.70;;;;;;;;;;4954627;28;20214;-62
2022/01/26 07:05:33;;;;;;;15.93;9.73;;;;;;;;;;4962340;28;20226;-62
2022/01/26 07:08:01;;;;;;;17.33;9.90;;;;;;;;;;4955674;28;20293;-62
2022/01/26 07:10:29;;;;;;;19.10;10.70;;;;;;;;;;4957209;28;21154;-63
2022/01/26 07:12:57;;;;;;;19.27;11.33;;;;;;;;;;4955603;28;20624;-63
2022/01/26 07:24:00;;;;;;;26.57;14.50;;;;;;;;;;4913276;29;20286;-63
2022/01/26 07:26:29;;;;;;;26.00;14.33;;;;;;;;;;4939952;28;20239;-63
2022/01/26 07:28:58;;;;;;;21.13;12.40;;;;;;;;;;4960460;28;20691;-63
2022/01/26 07:31:26;;;;;;;19.93;13.13;;;;;;;;;;4956014;28;20702;-63
2022/01/26 07:33:55;;;;;;;18.63;11.70;;;;;;;;;;4958269;28;20426;-63
2022/01/26 07:36:24;;;;;;;20.53;10.93;;;;;;;;;;4956187;28;20229;-64
2022/01/26 07:38:54;;;;;;;19.63;10.87;;;;;;;;;;4958700;28;20217;-63
2022/01/26 07:41:22;;;;;;;21.30;12.53;;;;;;;;;;4954498;28;20237;-63
2022/01/26 07:43:49;;;;;;;20.70;12.23;;;;;;;;;;4959160;28;20234;-62
2022/01/26 07:46:17;;;;;;;24.07;12.73;;;;;;;;;;4975012;28;20665;-64
2022/01/26 07:48:45;;;;;;;22.37;12.93;;;;;;;;;;4971374;28;20221;-63
2022/01/26 07:51:12;;;;;;;23.90;13.93;;;;;;;;;;4968753;28;20231;-63
2022/01/26 07:53:39;;;;;;;25.13;14.77;;;;;;;;;;4957253;28;20213;-64
2022/01/26 07:56:07;;;;;;;28.07;16.47;;;;;;;;;;4961253;28;20217;-61
2022/01/26 07:58:34;;;;;;;24.07;14.73;;;;;;;;;;4959334;28;20272;-62
2022/01/26 08:01:02;;;;;;;23.17;14.00;;;;;;;;;;4952149;28;20248;-63
2022/01/26 08:03:33;;;;;;;22.87;12.70;;;;;;;;;;4947600;28;20275;-63
2022/01/26 08:06:02;;;;;;;21.60;12.73;;;;;;;;;;4950267;28;20260;-64
2022/01/26 08:08:30;;;;;;;17.80;12.37;;;;;;;;;;4950669;28;20203;-64
2022/01/26 08:10:58;;;;;;;21.43;12.27;;;;;;;;;;4953015;28;20234;-63
2022/01/26 08:13:26;;;;;;;25.07;14.47;;;;;;;;;;4952062;28;20211;-63
2022/01/26 08:15:57;;;;;;;22.43;13.50;;;;;;;;;;4950937;28;20208;-62
2022/01/26 08:18:25;;;;;;;20.43;11.77;;;;;;;;;;4953236;28;20209;-63
2022/01/26 08:20:52;;;;;;;18.87;12.27;;;;;;;;;;4956318;28;20571;-63
2022/01/26 08:23:22;;;;;;;19.50;12.17;;;;;;;;;;4956380;28;20216;-64
2022/01/26 08:25:51;;;;;;;15.80;11.23;;;;;;;;;;4956894;28;20302;-63
2022/01/26 08:28:27;;;;;;;18.87;11.30;;;;;;;;;;4954046;28;20302;-64
2022/01/26 08:30:55;;;;;;;16.97;10.83;;;;;;;;;;4950850;28;21033;-63
2022/01/26 08:33:22;;;;;;;20.17;11.10;;;;;;;;;;4955368;28;20212;-64
2022/01/26 08:35:50;;;;;;;18.70;10.47;;;;;;;;;;4952054;28;20665;-63
2022/01/26 08:38:19;;;;;;;17.10;9.77;;;;;;;;;;4960613;28;20691;-62
2022/01/26 08:40:47;;;;;;;19.40;10.83;;;;;;;;;;4967958;28;20231;-65
2022/01/26 08:43:15;;;;;;;23.20;11.80;;;;;;;;;;4971260;28;20216;-65
2022/01/26 08:45:42;;;;;;;19.27;11.37;;;;;;;;;;4958378;28;20304;-64
2022/01/26 08:48:12;;;;;;;15.23;10.13;;;;;;;;;;4955697;28;20241;-62
2022/01/26 08:50:40;;;;;;;16.50;10.40;;;;;;;;;;4953550;28;20230;-63
2022/01/26 08:53:07;;;;;;;16.27;9.37;;;;;;;;;;4959908;28;20205;-64
2022/01/26 08:55:36;;;;;;;17.70;9.67;;;;;;;;;;4957043;28;20204;-64
2022/01/26 08:58:04;;;;;;;13.87;9.13;;;;;;;;;;4953013;28;20293;-64
2022/01/26 09:00:35;;;;;;;12.77;8.80;;;;;;;;;;4957372;28;20324;-64
2022/01/26 09:03:13;;;;;;;13.87;8.63;;;;;;;;;;4948039;28;20224;-63
2022/01/26 09:05:41;;;;;;;15.60;8.87;;;;;;;;;;4953238;28;20212;-63
2022/01/26 09:08:08;;;;;;;15.60;9.13;;;;;;;;;;4952321;28;20421;-64
2022/01/26 09:10:38;;;;;;;13.50;9.03;;;;;;;;;;4958198;28;20337;-62
2022/01/26 09:13:05;;;;;;;13.87;8.70;;;;;;;;;;4960376;28;20259;-64
2022/01/26 09:15:33;;;;;;;13.53;9.03;;;;;;;;;;4966924;28;20200;-64
2022/01/26 09:18:03;;;;;;;15.27;8.73;;;;;;;;;;4958768;28;20236;-64
2022/01/26 09:20:34;;;;;;;12.20;8.00;;;;;;;;;;4960190;28;20232;-64
2022/01/26 09:23:02;;;;;;;14.07;8.60;;;;;;;;;;4961426;28;20271;-65
2022/01/26 09:25:34;;;;;;;14.03;8.47;;;;;;;;;;4956439;28;20220;-63
2022/01/26 09:28:02;;;;;;;13.90;8.50;;;;;;;;;;4956107;28;20251;-63
2022/01/26 09:30:29;;;;;;;13.60;8.17;;;;;;;;;;4954846;28;20236;-64
2022/01/26 09:32:57;;;;;;;14.50;8.70;;;;;;;;;;4953112;28;20264;-64
2022/01/26 09:35:24;;;;;;;14.90;8.77;;;;;;;;;;4951630;28;20208;-64
2022/01/26 09:37:52;;;;;;;15.43;8.80;;;;;;;;;;4955982;28;20279;-65
2022/01/26 09:40:19;;;;;;;14.37;8.33;;;;;;;;;;4962410;28;20225;-64
2022/01/26 09:42:47;;;;;;;19.53;9.30;;;;;;;;;;4962915;28;20446;-64
2022/01/26 09:45:14;;;;;;;12.40;8.33;;;;;;;;;;4958459;28;20212;-64
2022/01/26 09:47:43;;;;;;;12.13;7.90;;;;;;;;;;4956987;28;20224;-64
2022/01/26 09:50:29;;;;;;;12.80;8.53;;;;;;;;;;4972006;28;20228;-64
2022/01/26 09:52:57;;;;;;;14.93;8.37;;;;;;;;;;4971468;28;20196;-64
2022/01/26 09:55:25;;;;;;;10.30;8.17;;;;;;;;;;4963395;28;20201;-64
2022/01/26 09:57:58;;;;;;;14.43;8.43;;;;;;;;;;4957361;28;20303;-64
2022/01/26 10:00:27;;;;;;;12.30;8.67;;;;;;;;;;4956866;28;20242;-64
2022/01/26 10:02:58;;;;;;;12.90;8.90;;;;;;;;;;4952478;28;21935;-64
2022/01/26 10:05:26;;;;;;;13.93;9.17;;;;;;;;;;4949786;28;20255;-64
2022/01/26 10:19:07;;;;;;;15.47;8.63;;;;;;;;;;4962468;28;20316;-64
2022/01/26 10:21:45;;;;;;;13.43;8.20;;;;;;;;;;4955367;28;20245;-64
2022/01/26 10:24:13;;;;;;;12.47;7.80;;;;;;;;;;4957773;28;20925;-65
2022/01/26 10:26:40;;;;;;;12.43;8.13;;;;;;;;;;4976640;28;20299;-63
2022/01/26 10:29:08;;;;;;;12.77;7.60;;;;;;;;;;4960247;28;20210;-65
2022/01/26 10:31:38;;;;;;;14.03;7.27;;;;;;;;;;4959006;28;20233;-63
2022/01/26 10:34:09;;;;;;;12.87;7.00;;;;;;;;;;4958317;28;20205;-64
2022/01/26 10:36:37;;;;;;;11.70;7.10;;;;;;;;;;4970908;28;20210;-65
2022/01/26 10:39:07;;;;;;;11.90;7.13;;;;;;;;;;4975428;28;20200;-64
2022/01/26 10:41:36;;;;;;;10.53;6.90;;;;;;;;;;4964109;28;20774;-65
2022/01/26 10:44:05;;;;;;;11.20;7.37;;;;;;;;;;4966561;28;20682;-65
2022/01/26 10:46:42;;;;;;;9.67;6.53;;;;;;;;;;4967759;28;20201;-64
2022/01/26 10:54:22;;;;;;;7.97;6.20;;;;;;;;;;4953891;28;20208;-65
2022/01/26 10:56:50;;;;;;;9.13;6.67;;;;;;;;;;4954992;28;20307;-65
2022/01/26 10:59:18;;;;;;;11.73;7.00;;;;;;;;;;4953855;28;20221;-64
2022/01/26 11:01:46;;;;;;;8.37;6.50;;;;;;;;;;4954876;28;20256;-65
2022/01/26 11:04:13;;;;;;;8.70;6.63;;;;;;;;;;4957303;28;20213;-65
2022/01/26 11:06:43;;;;;;;6.83;5.90;;;;;;;;;;4958061;28;20231;-63
2022/01/26 11:09:13;;;;;;;10.77;7.83;;;;;;;;;;4951127;28;20288;-66
2022/01/26 11:11:40;;;;;;;15.00;9.17;;;;;;;;;;4958166;28;20228;-65
2022/01/26 11:14:22;;;;;;;9.67;7.17;;;;;;;;;;4959686;28;20212;-65
2022/01/26 11:17:01;;;;;;;8.50;5.83;;;;;;;;;;4951368;28;20221;-63
2022/01/26 11:19:39;;;;;;;8.03;6.23;;;;;;;;;;4945793;28;21142;-64
2022/01/26 11:22:07;;;;;;;7.30;5.57;;;;;;;;;;4957165;28;20291;-64
2022/01/26 11:24:51;;;;;;;7.30;5.30;;;;;;;;;;4956888;28;20212;-65
2022/01/26 11:27:19;;;;;;;7.80;5.30;;;;;;;;;;4957608;28;20237;-64
2022/01/26 11:29:50;;;;;;;6.80;5.37;;;;;;;;;;4949131;28;20239;-64
2022/01/26 11:32:25;;;;;;;6.50;4.97;;;;;;;;;;4944044;28;20232;-64
2022/01/26 11:34:53;;;;;;;7.23;5.00;;;;;;;;;;4952793;28;20255;-64
2022/01/26 11:37:36;;;;;;;6.33;4.90;;;;;;;;;;4945930;28;20298;-62
2022/01/26 11:45:26;;;;;;;6.60;4.50;;;;;;;;;;4952526;28;20591;-63
2022/01/26 11:48:02;;;;;;;6.87;4.43;;;;;;;;;;4965524;28;20239;-64
2022/01/26 11:50:30;;;;;;;5.33;4.57;;;;;;;;;;4965930;28;20228;-60
2022/01/26 11:53:17;;;;;;;6.40;4.50;;;;;;;;;;4953183;28;20795;-65
2022/01/26 11:55:50;;;;;;;5.47;4.00;;;;;;;;;;4950199;28;20208;-64
2022/01/26 11:58:20;;;;;;;6.77;4.07;;;;;;;;;;4954929;28;20205;-63
2022/01/26 12:01:06;;;;;;;6.87;4.07;;;;;;;;;;4959364;28;20240;-65
2022/01/26 12:03:35;;;;;;;6.57;4.20;;;;;;;;;;4955085;28;20196;-64
2022/01/26 12:06:03;;;;;;;3.90;3.40;;;;;;;;;;4957159;28;20672;-64
2022/01/26 12:08:39;;;;;;;7.00;4.13;;;;;;;;;;4956691;28;21035;-63
2022/01/26 12:11:10;;;;;;;4.80;3.90;;;;;;;;;;4962856;28;20232;-63
2022/01/26 12:13:39;;;;;;;4.90;4.00;;;;;;;;;;4948559;28;20204;-65
2022/01/26 12:16:11;;;;;;;5.23;3.90;;;;;;;;;;4956789;28;20197;-64
2022/01/26 12:18:55;;;;;;;6.03;4.63;;;;;;;;;;4949541;28;20630;-63
2022/01/26 12:35:51;;;;;;;7.03;5.20;;;;;;;;;;4956249;28;20210;-64
2022/01/26 12:38:25;;;;;;;6.90;4.67;;;;;;;;;;4953645;28;20228;-64
2022/01/26 12:43:44;;;;;;;6.30;4.50;;;;;;;;;;4962563;28;20209;-64
2022/01/26 12:46:13;;;;;;;6.93;4.30;;;;;;;;;;4953017;28;20236;-64
2022/01/26 12:48:42;;;;;;;4.77;4.27;;;;;;;;;;4957152;28;20237;-65
2022/01/26 12:51:10;;;;;;;5.57;4.17;;;;;;;;;;4962609;28;20235;-62
2022/01/26 12:53:40;;;;;;;7.10;4.47;;;;;;;;;;4951415;28;20220;-65
2022/01/26 12:56:09;;;;;;;5.17;4.20;;;;;;;;;;4956866;28;20697;-64
2022/01/26 12:58:37;;;;;;;5.53;4.33;;;;;;;;;;4961893;28;20260;-64
2022/01/26 13:01:31;;;;;;;5.47;4.37;;;;;;;;;;4962457;28;20596;-64
2022/01/26 13:03:59;;;;;;;7.57;4.70;;;;;;;;;;4954360;28;20652;-62
2022/01/26 13:06:28;;;;;;;5.70;4.57;;;;;;;;;;4949502;28;20216;-64
2022/01/26 13:08:57;;;;;;;6.90;5.00;;;;;;;;;;4954990;28;20241;-64
2022/01/26 13:11:25;;;;;;;6.10;4.90;;;;;;;;;;4955377;28;20221;-64
2022/01/26 13:14:28;;;;;;;6.00;4.27;;;;;;;;;;4961279;28;20258;-64
2022/01/26 13:17:11;;;;;;;9.03;4.80;;;;;;;;;;4940269;28;20201;-64
2022/01/26 13:19:57;;;;;;;8.63;5.33;;;;;;;;;;4953539;28;20730;-64
2022/01/26 13:28:02;;;;;;;16.30;9.43;;;;;;;;;;4958646;28;20243;-64
2022/01/26 13:36:39;;;;;;;8.27;5.87;;;;;;;;;;4961880;28;20211;-64
2022/01/26 13:39:55;;;;;;;8.73;5.60;;;;;;;;;;4962642;28;20339;-65
2022/01/26 13:55:15;;;;;;;8.43;6.47;;;;;;;;;;4960005;28;20255;-64
2022/01/26 13:57:50;;;;;;;9.57;6.53;;;;;;;;;;4960986;28;20251;-65
2022/01/26 14:00:20;;;;;;;9.43;6.60;;;;;;;;;;4960488;28;20330;-64
2022/01/26 14:02:50;;;;;;;8.33;6.53;;;;;;;;;;4957920;28;20304;-65
2022/01/26 14:05:17;;;;;;;10.43;7.20;;;;;;;;;;4951469;28;20219;-64
2022/01/26 14:07:45;;;;;;;8.70;6.40;;;;;;;;;;4951768;28;21449;-64
2022/01/26 14:10:12;;;;;;;8.53;5.67;;;;;;;;;;4951034;28;20220;-65
2022/01/26 14:12:45;;;;;;;8.83;6.87;;;;;;;;;;4961086;28;20205;-64
2022/01/26 14:15:19;;;;;;;9.20;6.63;;;;;;;;;;4959208;28;20213;-65
2022/01/26 14:18:01;;;;;;;7.50;6.10;;;;;;;;;;4977753;28;20224;-64
2022/01/26 14:25:50;;;;;;;9.83;7.40;;;;;;;;;;4960124;28;20352;-64
2022/01/26 14:28:21;;;;;;;9.30;6.93;;;;;;;;;;4956684;28;20260;-65
2022/01/26 14:31:07;;;;;;;10.97;6.60;;;;;;;;;;4959627;28;21805;-64
2022/01/26 14:34:20;;;;;;;10.03;6.57;;;;;;;;;;4961753;28;20678;-65
2022/01/26 14:39:27;;;;;;;9.83;7.27;;;;;;;;;;4973726;28;20227;-64
2022/01/26 14:40:50;;;;;;;10.27;7.43;;;;;;;;;;4964431;28;20651;-65
2022/01/26 15:42:40;;;;;;;51.83;20.83;;;;;;;;;;4970077;28;20209;-62
2022/01/26 16:07:21;;;;;;;48.00;21.70;;;;;;;;;;4964966;28;20208;-64
2022/01/26 16:12:43;;;;;;;69.33;23.73;;;;;;;;;;4973884;28;20207;-64
2022/01/26 16:26:58;;;;;;;45.10;22.67;;;;;;;;;;4962622;28;20201;-63
2022/01/26 17:24:38;;;;;;;44.50;24.70;;;;;;;;;;4972895;28;20269;-64
2022/01/26 18:32:59;;;;;;;43.03;22.13;;;;;;;;;;4965838;28;20213;-62
2022/01/26 18:46:47;;;;;;;45.73;22.93;;;;;;;;;;4966987;28;20299;-63
2022/01/26 18:49:21;;;;;;;48.83;23.93;;;;;;;;;;4961699;28;23254;-64
2022/01/26 18:51:53;;;;;;;51.73;24.53;;;;;;;;;;4972223;28;20259;-63
2022/01/26 18:54:23;;;;;;;50.77;22.90;;;;;;;;;;4951749;28;20217;-63
2022/01/26 18:56:51;;;;;;;49.53;22.47;;;;;;;;;;4962615;28;20207;-63
2022/01/26 18:59:19;;;;;;;54.07;22.57;;;;;;;;;;4968188;28;20226;-63
2022/01/26 19:01:47;;;;;;;51.93;23.03;;;;;;;;;;4958490;28;21078;-62
2022/01/26 19:04:34;;;;;;;53.47;23.33;;;;;;;;;;4954967;28;20305;-64
2022/01/26 19:07:03;;;;;;;48.13;22.70;;;;;;;;;;4950866;28;20224;-62
2022/01/26 19:09:34;;;;;;;62.13;24.57;;;;;;;;;;4960813;28;20279;-64
2022/01/26 19:12:05;;;;;;;57.07;25.10;;;;;;;;;;4966431;28;20207;-64
2022/01/26 19:14:39;;;;;;;48.20;23.17;;;;;;;;;;4969971;28;20727;-62
2022/01/26 19:17:14;;;;;;;70.27;24.80;;;;;;;;;;4965394;28;20201;-63
2022/01/26 19:25:00;;;;;;;61.93;24.87;;;;;;;;;;4955672;28;20239;-63
2022/01/26 19:30:21;;;;;;;56.40;25.00;;;;;;;;;;4962968;28;20263;-63
2022/01/26 19:43:39;;;;;;;67.00;25.80;;;;;;;;;;4969135;28;20220;-63
2022/01/26 19:51:26;;;;;;;50.17;23.87;;;;;;;;;;4955494;28;20232;-63
2022/01/26 19:53:54;;;;;;;42.73;21.87;;;;;;;;;;4961867;28;20570;-63
2022/01/26 19:56:21;;;;;;;53.77;22.37;;;;;;;;;;4951320;28;20205;-63
2022/01/26 19:58:48;;;;;;;51.87;24.27;;;;;;;;;;4953871;28;20201;-62
2022/01/26 20:01:16;;;;;;;64.70;24.83;;;;;;;;;;4956339;28;20225;-63
2022/01/26 20:03:44;;;;;;;53.60;24.43;;;;;;;;;;4962623;28;20208;-64
2022/01/26 20:06:13;;;;;;;55.77;20.87;;;;;;;;;;4964737;28;20317;-62
2022/01/26 20:08:53;;;;;;;56.13;24.03;;;;;;;;;;4965259;28;20220;-63
2022/01/26 20:11:42;;;;;;;53.73;24.03;;;;;;;;;;4957478;28;20239;-62
2022/01/26 20:14:09;;;;;;;62.03;22.57;;;;;;;;;;4960632;28;20257;-62
2022/01/26 20:16:37;;;;;;;46.27;22.67;;;;;;;;;;4975818;28;20204;-63
2022/01/26 20:19:05;;;;;;;54.27;23.90;;;;;;;;;;4966054;28;20243;-64
2022/01/26 20:21:33;;;;;;;62.20;23.97;;;;;;;;;;4961671;28;20236;-63
2022/01/26 20:24:00;;;;;;;56.90;22.87;;;;;;;;;;4955371;28;20224;-62
2022/01/26 20:26:28;;;;;;;103.10;22.67;;;;;;;;;;4953574;28;20585;-63
2022/01/26 20:28:56;;;;;;;100.40;24.63;;;;;;;;;;4949148;28;20216;-62
2022/01/26 20:31:25;;;;;;;93.17;23.77;;;;;;;;;;4950239;28;20283;-63
2022/01/26 20:33:54;;;;;;;59.50;23.23;;;;;;;;;;4949755;28;20206;-64
2022/01/26 20:36:23;;;;;;;66.93;24.40;;;;;;;;;;4952330;28;20575;-63
2022/01/26 20:38:51;;;;;;;112.80;37.87;;;;;;;;;;4946933;28;20271;-62
2022/01/26 20:41:18;;;;;;;126.43;46.40;;;;;;;;;;4955506;28;20229;-63
2022/01/26 20:43:46;;;;;;;146.17;54.77;;;;;;;;;;4959351;28;20844;-65
2022/01/26 20:46:14;;;;;;;99.17;41.40;;;;;;;;;;4957429;28;20219;-63
2022/01/26 20:48:41;;;;;;;68.47;31.77;;;;;;;;;;4956897;28;20211;-63
2022/01/26 20:51:09;;;;;;;61.80;24.50;;;;;;;;;;4954141;28;20236;-63
2022/01/26 20:53:36;;;;;;;45.47;22.43;;;;;;;;;;4955606;28;20774;-64
2022/01/26 20:56:04;;;;;;;56.43;27.03;;;;;;;;;;4953661;28;20208;-64
2022/01/26 20:58:32;;;;;;;50.47;24.17;;;;;;;;;;4964819;28;20209;-63
2022/01/26 21:01:03;;;;;;;54.73;23.77;;;;;;;;;;4960978;28;20229;-64
2022/01/26 21:03:31;;;;;;;67.33;24.40;;;;;;;;;;4959857;28;20239;-63
2022/01/26 21:05:59;;;;;;;58.20;24.87;;;;;;;;;;4957748;28;20716;-62
2022/01/26 21:08:26;;;;;;;51.50;19.47;;;;;;;;;;4960338;28;20219;-63
2022/01/26 21:10:54;;;;;;;45.67;19.93;;;;;;;;;;4967124;28;20725;-63
2022/01/26 21:13:33;;;;;;;41.10;20.60;;;;;;;;;;4970641;28;20238;-62
2022/01/26 21:16:01;;;;;;;67.13;23.07;;;;;;;;;;4971906;28;20254;-64
2022/01/26 21:18:31;;;;;;;53.37;20.60;;;;;;;;;;4972650;28;20678;-63
2022/01/26 21:21:01;;;;;;;81.93;19.40;;;;;;;;;;4986809;28;20228;-62
2022/01/26 21:23:29;;;;;;;66.13;19.70;;;;;;;;;;4978912;28;20212;-62
2022/01/26 21:25:57;;;;;;;54.93;19.40;;;;;;;;;;4971538;28;20218;-64
2022/01/26 21:28:25;;;;;;;57.27;19.30;;;;;;;;;;4971993;28;20210;-63
2022/01/26 21:30:52;;;;;;;80.87;20.23;;;;;;;;;;4966331;28;20243;-63
2022/01/26 21:33:22;;;;;;;49.07;20.70;;;;;;;;;;4962962;28;20675;-64
2022/01/26 21:35:49;;;;;;;41.60;19.90;;;;;;;;;;4975206;28;20211;-62
2022/01/26 21:38:17;;;;;;;58.73;22.07;;;;;;;;;;4971275;28;20216;-62
2022/01/26 21:40:44;;;;;;;63.10;21.47;;;;;;;;;;4976577;28;20231;-63
2022/01/26 21:43:12;;;;;;;85.00;22.13;;;;;;;;;;4977565;28;20207;-64
2022/01/26 21:45:40;;;;;;;58.43;22.50;;;;;;;;;;4968429;28;20217;-64
2022/01/26 21:48:07;;;;;;;59.23;22.23;;;;;;;;;;4973569;28;20219;-63
2022/01/26 21:50:35;;;;;;;60.07;22.63;;;;;;;;;;4978845;28;20282;-63